Time;durP1;ratioP1;P1;durP2;ratioP2;P2;SDS_P1;SDS_P2;PMS_P1;PMS_P2;Temp;Humidity;BMP_temperature;BMP_pressure;BME280_temperature;BME280_humidity;BME280_pressure;Samples;Min_cycle;Max_cycle;Signal;HPM_P1;HPM_P2
2023/02/24 00:01:12;;;;;;;92.78;58.38;;;;;;;;;;10012399;28;20495;-69
2023/02/24 00:06:10;;;;;;;96.60;60.92;;;;;;;;;;10014170;28;20058;-69
2023/02/24 00:11:12;;;;;;;94.20;60.25;;;;;;;;;;10005350;28;20050;-69
2023/02/24 00:16:06;;;;;;;95.13;60.42;;;;;;;;;;10019114;28;20112;-69
2023/02/24 00:21:12;;;;;;;89.68;59.97;;;;;;;;;;10018629;28;20081;-69
2023/02/24 00:26:07;;;;;;;91.28;60.33;;;;;;;;;;10016971;28;20782;-69
2023/02/24 00:31:10;;;;;;;90.15;56.90;;;;;;;;;;10021958;28;20038;-69
2023/02/24 00:36:06;;;;;;;86.25;58.05;;;;;;;;;;10026851;28;20054;-69
2023/02/24 00:41:01;;;;;;;83.05;54.65;;;;;;;;;;10027170;28;20100;-69
2023/02/24 00:45:54;;;;;;;73.15;49.95;;;;;;;;;;10022546;28;20093;-69
2023/02/24 00:50:48;;;;;;;75.68;50.55;;;;;;;;;;10022437;28;20514;-69
2023/02/24 00:55:42;;;;;;;75.82;47.95;;;;;;;;;;10025131;28;20096;-69
2023/02/24 01:00:37;;;;;;;78.00;52.30;;;;;;;;;;10024459;28;20046;-69
2023/02/24 01:05:34;;;;;;;83.63;53.22;;;;;;;;;;10026336;28;20049;-69
2023/02/24 01:10:28;;;;;;;74.38;48.95;;;;;;;;;;10024042;28;20057;-69
2023/02/24 01:15:22;;;;;;;81.35;54.45;;;;;;;;;;10023998;28;20387;-68
2023/02/24 01:20:19;;;;;;;85.90;55.10;;;;;;;;;;10025478;28;20038;-69
2023/02/24 01:25:12;;;;;;;83.20;55.13;;;;;;;;;;10026032;28;20053;-69
2023/02/24 01:30:14;;;;;;;87.15;54.75;;;;;;;;;;10025989;28;20052;-69
2023/02/24 01:35:10;;;;;;;78.28;52.20;;;;;;;;;;10025313;28;20061;-69
2023/02/24 01:40:17;;;;;;;84.65;54.97;;;;;;;;;;10026251;28;20096;-69
2023/02/24 01:45:25;;;;;;;81.70;53.75;;;;;;;;;;10014567;28;20049;-69
2023/02/24 01:50:20;;;;;;;78.03;52.30;;;;;;;;;;10024508;28;20491;-69
2023/02/24 01:55:19;;;;;;;82.07;53.33;;;;;;;;;;10010545;28;20092;-69
2023/02/24 02:00:31;;;;;;;79.72;50.10;;;;;;;;;;10027306;28;20405;-69
2023/02/24 02:05:24;;;;;;;78.28;46.10;;;;;;;;;;10031822;28;20061;-69
2023/02/24 02:10:18;;;;;;;81.82;47.28;;;;;;;;;;10032564;28;20141;-69
2023/02/24 02:15:15;;;;;;;72.28;48.50;;;;;;;;;;10009538;28;20125;-69
2023/02/24 02:20:27;;;;;;;75.80;47.78;;;;;;;;;;10005816;28;20046;-69
2023/02/24 02:25:53;;;;;;;75.70;48.38;;;;;;;;;;10006232;28;20054;-69
2023/02/24 02:31:17;;;;;;;73.38;46.20;;;;;;;;;;10028022;28;20057;-69
2023/02/24 02:36:35;;;;;;;69.82;45.38;;;;;;;;;;10019361;28;20104;-68
2023/02/24 02:41:30;;;;;;;68.97;46.22;;;;;;;;;;10031059;28;20045;-68
2023/02/24 02:46:46;;;;;;;62.38;44.53;;;;;;;;;;10029229;28;20622;-68
2023/02/24 02:51:43;;;;;;;61.83;42.00;;;;;;;;;;10026099;28;20529;-68
2023/02/24 02:56:41;;;;;;;68.75;42.70;;;;;;;;;;10004838;28;20046;-69
2023/02/24 03:01:37;;;;;;;70.03;46.55;;;;;;;;;;10000172;28;20053;-69
2023/02/24 03:06:38;;;;;;;75.55;43.15;;;;;;;;;;10027564;28;20053;-69
2023/02/24 03:11:33;;;;;;;62.95;42.85;;;;;;;;;;10028887;28;20096;-69
2023/02/24 03:16:27;;;;;;;62.47;41.28;;;;;;;;;;10028176;28;20406;-70
2023/02/24 03:21:31;;;;;;;60.55;40.60;;;;;;;;;;10018272;28;20506;-70
2023/02/24 03:26:27;;;;;;;66.47;39.90;;;;;;;;;;10004371;28;20144;-69
2023/02/24 03:31:36;;;;;;;62.47;40.50;;;;;;;;;;10021943;28;20046;-69
2023/02/24 03:36:30;;;;;;;62.33;39.05;;;;;;;;;;10026332;28;20053;-69
2023/02/24 03:41:29;;;;;;;62.80;39.95;;;;;;;;;;10012181;28;20427;-69
2023/02/24 03:46:23;;;;;;;57.83;37.88;;;;;;;;;;10026052;28;20041;-68
2023/02/24 03:51:17;;;;;;;64.82;38.80;;;;;;;;;;10027151;28;20057;-69
2023/02/24 03:56:46;;;;;;;58.17;37.63;;;;;;;;;;10011723;28;20470;-69
2023/02/24 04:02:04;;;;;;;58.90;37.78;;;;;;;;;;9989427;28;20046;-69
2023/02/24 04:07:39;;;;;;;57.40;36.38;;;;;;;;;;10032686;28;20502;-69
2023/02/24 04:12:46;;;;;;;57.33;35.95;;;;;;;;;;10022288;28;20041;-69
2023/02/24 04:18:12;;;;;;;61.50;34.72;;;;;;;;;;10026050;28;20046;-69
2023/02/24 04:23:15;;;;;;;47.58;34.55;;;;;;;;;;10014670;28;20454;-68
2023/02/24 04:28:09;;;;;;;68.82;41.45;;;;;;;;;;10010801;28;20133;-69
2023/02/24 04:33:05;;;;;;;65.63;38.50;;;;;;;;;;10004271;28;20076;-68
2023/02/24 04:37:59;;;;;;;64.10;37.85;;;;;;;;;;10000269;28;20046;-68
2023/02/24 04:42:53;;;;;;;65.40;39.88;;;;;;;;;;10003197;28;20073;-69
2023/02/24 04:47:55;;;;;;;67.97;39.42;;;;;;;;;;10016908;28;20054;-68
2023/02/24 04:52:49;;;;;;;52.15;34.88;;;;;;;;;;10009891;28;20058;-68
2023/02/24 04:57:54;;;;;;;50.17;34.20;;;;;;;;;;10010369;28;20125;-68
2023/02/24 05:02:55;;;;;;;58.35;38.10;;;;;;;;;;10008786;28;20407;-69
2023/02/24 05:07:50;;;;;;;61.03;37.45;;;;;;;;;;10011907;28;20108;-68
2023/02/24 05:12:43;;;;;;;70.30;40.72;;;;;;;;;;10006348;28;20088;-68
2023/02/24 05:17:36;;;;;;;59.80;39.80;;;;;;;;;;10012065;28;20113;-68
2023/02/24 05:22:29;;;;;;;59.40;38.05;;;;;;;;;;10008130;28;20046;-69
2023/02/24 05:27:22;;;;;;;59.22;40.80;;;;;;;;;;10016191;28;20049;-69
2023/02/24 05:32:15;;;;;;;60.63;38.92;;;;;;;;;;10033115;28;20038;-70
2023/02/24 05:37:09;;;;;;;55.55;36.13;;;;;;;;;;10033795;28;20038;-70
2023/02/24 05:42:05;;;;;;;64.03;41.80;;;;;;;;;;10033414;28;20054;-69
2023/02/24 05:46:59;;;;;;;47.67;35.15;;;;;;;;;;10033804;28;20547;-69
2023/02/24 05:51:53;;;;;;;58.53;37.80;;;;;;;;;;10032662;28;20076;-69
2023/02/24 05:56:47;;;;;;;53.45;35.05;;;;;;;;;;10032840;28;20487;-69
2023/02/24 06:01:41;;;;;;;52.90;36.85;;;;;;;;;;10032804;28;20046;-69
2023/02/24 06:06:57;;;;;;;60.33;42.38;;;;;;;;;;10032323;28;20049;-68
2023/02/24 06:11:50;;;;;;;57.72;39.35;;;;;;;;;;10018438;28;20518;-68
2023/02/24 06:16:44;;;;;;;61.10;38.00;;;;;;;;;;10014024;28;20133;-69
2023/02/24 06:21:40;;;;;;;64.82;39.53;;;;;;;;;;10005657;28;20431;-68
2023/02/24 06:26:35;;;;;;;63.95;40.05;;;;;;;;;;10008155;28;20045;-69
2023/02/24 06:31:28;;;;;;;61.22;39.85;;;;;;;;;;10018307;28;20077;-68
2023/02/24 06:36:22;;;;;;;59.50;38.67;;;;;;;;;;10017333;28;20054;-71
2023/02/24 06:41:16;;;;;;;63.25;42.17;;;;;;;;;;10017202;28;20058;-71
2023/02/24 06:46:12;;;;;;;68.25;42.78;;;;;;;;;;10002427;28;20550;-74
2023/02/24 06:51:05;;;;;;;63.08;40.80;;;;;;;;;;10012718;28;20481;-71
2023/02/24 06:56:01;;;;;;;64.93;40.03;;;;;;;;;;10028360;28;20503;-71
2023/02/24 07:00:58;;;;;;;70.75;42.38;;;;;;;;;;10031090;28;20042;-71
2023/02/24 07:05:53;;;;;;;66.30;42.58;;;;;;;;;;10030812;28;20046;-71
2023/02/24 07:10:54;;;;;;;65.78;41.30;;;;;;;;;;10031302;28;20064;-71
2023/02/24 07:15:48;;;;;;;67.38;41.35;;;;;;;;;;10025019;28;20061;-71
2023/02/24 07:20:45;;;;;;;72.95;45.17;;;;;;;;;;10029882;28;20585;-71
2023/02/24 07:25:45;;;;;;;71.28;43.60;;;;;;;;;;10017324;28;20133;-71
2023/02/24 07:30:39;;;;;;;69.00;45.10;;;;;;;;;;10025781;28;20038;-68
2023/02/24 07:35:39;;;;;;;62.38;40.90;;;;;;;;;;10029107;28;20092;-67
2023/02/24 07:40:35;;;;;;;64.88;41.50;;;;;;;;;;10028939;28;20046;-67
2023/02/24 07:45:28;;;;;;;73.82;42.85;;;;;;;;;;10018123;28;20136;-68
2023/02/24 07:50:22;;;;;;;61.30;40.10;;;;;;;;;;10026995;28;20522;-68
2023/02/24 07:55:16;;;;;;;70.25;44.90;;;;;;;;;;10027881;28;20045;-68
2023/02/24 08:00:17;;;;;;;61.22;42.15;;;;;;;;;;10028557;28;20054;-68
2023/02/24 08:05:11;;;;;;;56.22;40.20;;;;;;;;;;10024211;28;20041;-68
2023/02/24 08:10:12;;;;;;;65.18;41.97;;;;;;;;;;10027328;28;20046;-68
2023/02/24 08:15:15;;;;;;;64.95;40.13;;;;;;;;;;10024832;28;20077;-68
2023/02/24 08:25:07;;;;;;;60.95;40.70;;;;;;;;;;10024683;28;20058;-68
2023/02/24 08:30:01;;;;;;;62.95;42.45;;;;;;;;;;10026607;28;20058;-68
2023/02/24 08:35:01;;;;;;;60.80;41.28;;;;;;;;;;10023729;28;20064;-68
2023/02/24 08:39:55;;;;;;;66.05;41.60;;;;;;;;;;10026379;28;20076;-68
2023/02/24 08:44:52;;;;;;;59.35;42.70;;;;;;;;;;10016015;28;20050;-67
2023/02/24 08:49:48;;;;;;;63.53;42.70;;;;;;;;;;10026276;28;20097;-66
2023/02/24 08:54:48;;;;;;;61.47;42.95;;;;;;;;;;10016152;28;20046;-69
2023/02/24 08:59:48;;;;;;;70.55;44.92;;;;;;;;;;10026213;28;20104;-69
2023/02/24 09:04:44;;;;;;;72.88;49.30;;;;;;;;;;10019525;28;20074;-72
2023/02/24 09:09:40;;;;;;;66.32;48.05;;;;;;;;;;10024968;28;20057;-68
2023/02/24 09:14:37;;;;;;;63.15;47.30;;;;;;;;;;10025417;28;20049;-69
2023/02/24 09:24:45;;;;;;;58.38;43.38;;;;;;;;;;10024187;28;20081;-68
2023/02/24 09:29:48;;;;;;;61.08;44.30;;;;;;;;;;10024710;28;20112;-69
2023/02/24 09:34:42;;;;;;;52.42;41.35;;;;;;;;;;10021602;28;20437;-68
2023/02/24 09:44:51;;;;;;;51.55;40.25;;;;;;;;;;10012736;28;20145;-68
2023/02/24 09:49:47;;;;;;;55.35;40.22;;;;;;;;;;10024777;28;20057;-68
2023/02/24 09:54:52;;;;;;;59.80;40.97;;;;;;;;;;10024663;28;20050;-68
2023/02/24 10:00:23;;;;;;;56.92;39.58;;;;;;;;;;10024146;28;20049;-69
2023/02/24 10:05:18;;;;;;;;;;;;;;;;;;10023690;28;20068;-66
2023/02/24 10:10:26;;;;;;;47.08;36.58;;;;;;;;;;10018628;28;19952;-69
2023/02/24 10:20:44;;;;;;;46.78;34.58;;;;;;;;;;10028224;28;20045;-69
2023/02/24 10:25:52;;;;;;;54.63;33.42;;;;;;;;;;10031260;28;20048;-69
2023/02/24 10:30:47;;;;;;;47.80;33.15;;;;;;;;;;10031182;28;20084;-69
2023/02/24 10:35:42;;;;;;;43.47;32.00;;;;;;;;;;10030813;28;20113;-69
2023/02/24 10:40:55;;;;;;;46.17;31.25;;;;;;;;;;10030413;28;20070;-68
2023/02/24 10:45:54;;;;;;;43.42;30.40;;;;;;;;;;10018724;28;20045;-68
2023/02/24 10:50:47;;;;;;;39.13;27.85;;;;;;;;;;10030955;28;20053;-68
2023/02/24 10:55:52;;;;;;;42.45;28.20;;;;;;;;;;10020056;28;20041;-68
2023/02/24 11:11:05;;;;;;;39.45;26.77;;;;;;;;;;10024226;28;20092;-68
2023/02/24 11:21:13;;;;;;;40.72;26.98;;;;;;;;;;10030073;28;20054;-68
2023/02/24 11:26:29;;;;;;;36.50;26.98;;;;;;;;;;10022584;28;20502;-68
2023/02/24 11:31:59;;;;;;;40.38;29.00;;;;;;;;;;10028906;28;20049;-68
2023/02/24 11:37:05;;;;;;;39.88;27.08;;;;;;;;;;10023345;28;20096;-68
2023/02/24 11:42:01;;;;;;;39.65;25.70;;;;;;;;;;10017105;28;20108;-68
2023/02/24 11:47:08;;;;;;;36.33;24.65;;;;;;;;;;10028368;28;20139;-68
2023/02/24 11:52:03;;;;;;;42.10;25.30;;;;;;;;;;10024791;28;20066;-68
2023/02/24 11:56:58;;;;;;;37.38;26.33;;;;;;;;;;10028306;28;20053;-68
2023/02/24 12:02:23;;;;;;;39.00;27.60;;;;;;;;;;10019361;28;20061;-68
2023/02/24 12:07:32;;;;;;;34.72;25.23;;;;;;;;;;10017539;28;20400;-68
2023/02/24 12:13:14;;;;;;;40.25;23.52;;;;;;;;;;10027088;28;20054;-68
2023/02/24 12:18:14;;;;;;;36.65;22.60;;;;;;;;;;9965549;28;20129;-68
2023/02/24 12:23:32;;;;;;;25.70;18.83;;;;;;;;;;10023868;28;20136;-66
2023/02/24 12:28:53;;;;;;;43.20;21.07;;;;;;;;;;10026891;28;20499;-66
2023/02/24 12:34:47;;;;;;;29.83;22.35;;;;;;;;;;10026374;28;20053;-65
2023/02/24 12:39:59;;;;;;;25.33;18.95;;;;;;;;;;10026556;28;20477;-65
2023/02/24 12:45:14;;;;;;;34.72;22.45;;;;;;;;;;10016869;28;20065;-65
2023/02/24 12:50:23;;;;;;;34.83;23.92;;;;;;;;;;10019824;28;20514;-65
2023/02/24 12:55:39;;;;;;;37.10;20.35;;;;;;;;;;10019313;28;20050;-65
2023/02/24 13:00:59;;;;;;;37.70;20.17;;;;;;;;;;10014717;28;20430;-66
2023/02/24 13:06:18;;;;;;;29.02;18.00;;;;;;;;;;10015413;28;20084;-66
2023/02/24 13:11:32;;;;;;;33.08;19.00;;;;;;;;;;10015080;28;20048;-66
2023/02/24 13:16:32;;;;;;;29.52;17.25;;;;;;;;;;10024153;28;20397;-66
2023/02/24 13:21:26;;;;;;;25.80;19.05;;;;;;;;;;10024749;28;20054;-67
2023/02/24 13:26:23;;;;;;;30.80;21.10;;;;;;;;;;10018856;28;20078;-66
2023/02/24 13:31:15;;;;;;;40.30;21.23;;;;;;;;;;10019986;28;20511;-66
2023/02/24 13:36:24;;;;;;;31.52;18.00;;;;;;;;;;10024106;28;20072;-67
2023/02/24 13:41:26;;;;;;;35.78;19.05;;;;;;;;;;10022828;28;20124;-66
2023/02/24 13:46:20;;;;;;;37.92;20.67;;;;;;;;;;10023949;28;20057;-65
2023/02/24 13:51:38;;;;;;;50.40;41.58;;;;;;;;;;10026903;28;20410;-66
2023/02/24 13:57:05;;;;;;;28.17;18.92;;;;;;;;;;10029383;28;20042;-66
2023/02/24 14:02:11;;;;;;;32.50;19.83;;;;;;;;;;10012633;28;20058;-66
2023/02/24 14:07:09;;;;;;;34.10;19.95;;;;;;;;;;10031701;28;20046;-66
2023/02/24 14:12:15;;;;;;;32.17;20.80;;;;;;;;;;10030146;28;20101;-66
2023/02/24 14:17:43;;;;;;;42.22;20.15;;;;;;;;;;10029312;28;20058;-66
2023/02/24 14:22:44;;;;;;;31.92;19.77;;;;;;;;;;10028918;28;20056;-66
2023/02/24 14:27:39;;;;;;;32.28;19.33;;;;;;;;;;10029473;28;20477;-66
2023/02/24 14:32:33;;;;;;;30.48;19.67;;;;;;;;;;10030983;28;20080;-67
2023/02/24 14:37:29;;;;;;;34.85;19.95;;;;;;;;;;10028266;28;20049;-66
2023/02/24 14:42:25;;;;;;;31.60;19.83;;;;;;;;;;10029499;28;20077;-66
2023/02/24 14:47:22;;;;;;;37.72;21.42;;;;;;;;;;10029783;28;20088;-66
2023/02/24 14:52:15;;;;;;;40.25;23.48;;;;;;;;;;10030013;28;20199;-67
2023/02/24 14:57:13;;;;;;;32.03;20.95;;;;;;;;;;10029529;28;20058;-66
2023/02/24 15:02:15;;;;;;;36.10;19.40;;;;;;;;;;10027610;28;20060;-67
2023/02/24 15:07:18;;;;;;;28.65;21.00;;;;;;;;;;10027251;28;20053;-66
2023/02/24 15:12:31;;;;;;;38.03;23.52;;;;;;;;;;10027979;28;20422;-66
2023/02/24 15:17:24;;;;;;;36.72;22.98;;;;;;;;;;10028924;28;20474;-67
2023/02/24 15:22:20;;;;;;;35.22;23.85;;;;;;;;;;10027428;28;20069;-67
2023/02/24 15:27:13;;;;;;;38.75;25.80;;;;;;;;;;10029429;28;20049;-67
2023/02/24 15:32:16;;;;;;;39.25;24.45;;;;;;;;;;10028572;28;20085;-67
2023/02/24 15:37:20;;;;;;;45.97;28.45;;;;;;;;;;10028955;28;20061;-67
2023/02/24 15:42:19;;;;;;;42.97;28.88;;;;;;;;;;10027104;28;20060;-68
2023/02/24 15:47:27;;;;;;;39.60;26.10;;;;;;;;;;10029081;28;20060;-67
2023/02/24 15:52:23;;;;;;;43.10;27.38;;;;;;;;;;10021573;28;20065;-68
2023/02/24 15:57:17;;;;;;;47.45;29.08;;;;;;;;;;10015850;28;20414;-67
2023/02/24 16:02:35;;;;;;;50.20;29.27;;;;;;;;;;10028504;28;20046;-67
2023/02/24 16:07:32;;;;;;;46.80;28.42;;;;;;;;;;10022373;28;20454;-67
2023/02/24 16:12:33;;;;;;;46.97;28.60;;;;;;;;;;10024850;28;20145;-67
2023/02/24 16:17:37;;;;;;;49.28;30.33;;;;;;;;;;10026237;28;20526;-67
2023/02/24 16:22:31;;;;;;;41.80;26.92;;;;;;;;;;10026181;28;20057;-67
2023/02/24 16:27:26;;;;;;;41.97;28.13;;;;;;;;;;10027769;28;20042;-67
2023/02/24 16:32:22;;;;;;;40.60;26.98;;;;;;;;;;10016545;28;20056;-66
2023/02/24 16:37:25;;;;;;;45.15;28.67;;;;;;;;;;10027354;28;20096;-66
2023/02/24 16:42:18;;;;;;;51.40;28.35;;;;;;;;;;10026782;28;20083;-68
2023/02/24 16:47:18;;;;;;;41.85;27.05;;;;;;;;;;10026957;28;20060;-67
2023/02/24 16:52:17;;;;;;;60.65;32.20;;;;;;;;;;10015818;28;20057;-67
2023/02/24 16:57:12;;;;;;;50.10;29.00;;;;;;;;;;10024211;28;20132;-65
2023/02/24 17:02:04;;;;;;;46.70;27.13;;;;;;;;;;10024392;28;20049;-67
2023/02/24 17:06:58;;;;;;;50.60;28.48;;;;;;;;;;10023459;28;20049;-68
2023/02/24 17:11:52;;;;;;;42.85;29.77;;;;;;;;;;10022807;28;20050;-68
2023/02/24 17:16:45;;;;;;;46.67;30.45;;;;;;;;;;10023355;28;20087;-68
2023/02/24 17:21:42;;;;;;;49.95;35.03;;;;;;;;;;10022834;28;20478;-68
2023/02/24 17:26:36;;;;;;;51.33;36.08;;;;;;;;;;10021941;28;20068;-68
2023/02/24 17:31:31;;;;;;;47.10;31.98;;;;;;;;;;10022386;28;20176;-68
2023/02/24 17:36:25;;;;;;;44.38;32.35;;;;;;;;;;10021097;28;20064;-68
2023/02/24 17:41:20;;;;;;;49.90;33.13;;;;;;;;;;10006333;28;20063;-66
2023/02/24 17:46:14;;;;;;;42.58;28.95;;;;;;;;;;10010290;28;20052;-67
2023/02/24 17:51:06;;;;;;;48.78;31.65;;;;;;;;;;9958953;28;1462504;-63
2023/02/24 17:56:07;;;;;;;49.00;33.00;;;;;;;;;;10017271;28;20054;-62
2023/02/24 18:01:04;;;;;;;47.20;32.22;;;;;;;;;;10007813;28;20049;-63
2023/02/24 18:06:08;;;;;;;48.75;32.72;;;;;;;;;;10009177;28;20057;-63
2023/02/24 18:11:05;;;;;;;53.50;33.78;;;;;;;;;;10008344;28;20050;-64
2023/02/24 18:15:59;;;;;;;56.30;34.70;;;;;;;;;;10005335;28;20078;-65
2023/02/24 18:20:53;;;;;;;47.85;33.65;;;;;;;;;;10002882;28;20049;-64
2023/02/24 18:25:49;;;;;;;54.60;34.85;;;;;;;;;;10008123;28;20051;-64
2023/02/24 18:30:43;;;;;;;64.28;40.92;;;;;;;;;;10024066;28;20053;-67
2023/02/24 18:35:36;;;;;;;60.10;36.10;;;;;;;;;;10024649;28;20077;-67
2023/02/24 18:40:30;;;;;;;51.05;32.67;;;;;;;;;;10030452;28;20456;-67
2023/02/24 18:45:23;;;;;;;50.20;33.50;;;;;;;;;;10028748;28;20519;-67
2023/02/24 18:50:17;;;;;;;59.95;35.35;;;;;;;;;;10029715;28;20049;-68
2023/02/24 18:55:11;;;;;;;61.40;38.47;;;;;;;;;;10030954;28;20081;-67
2023/02/24 19:00:07;;;;;;;50.75;35.35;;;;;;;;;;10032287;28;20046;-67
2023/02/24 19:05:00;;;;;;;59.92;37.30;;;;;;;;;;10027509;28;20060;-67
2023/02/24 19:09:53;;;;;;;56.35;35.08;;;;;;;;;;10030206;28;20073;-67
2023/02/24 19:14:45;;;;;;;50.30;35.28;;;;;;;;;;10020232;28;20043;-68
2023/02/24 19:19:39;;;;;;;61.42;37.70;;;;;;;;;;10015016;28;20050;-68
2023/02/24 19:24:32;;;;;;;56.28;37.65;;;;;;;;;;10008990;28;20045;-73
2023/02/24 19:29:26;;;;;;;51.65;35.03;;;;;;;;;;10010632;28;20069;-73
2023/02/24 19:34:20;;;;;;;56.20;35.53;;;;;;;;;;10015849;28;20057;-65
2023/02/24 19:39:15;;;;;;;55.30;36.30;;;;;;;;;;10013994;28;20081;-64
2023/02/24 19:44:09;;;;;;;53.15;33.88;;;;;;;;;;10014734;28;20399;-74
2023/02/24 19:49:03;;;;;;;53.33;32.95;;;;;;;;;;10007426;28;20059;-67
2023/02/24 19:53:58;;;;;;;53.83;34.58;;;;;;;;;;10013120;28;20055;-71
2023/02/24 19:58:53;;;;;;;48.58;33.47;;;;;;;;;;10009385;28;20054;-68
2023/02/24 20:03:47;;;;;;;51.72;37.63;;;;;;;;;;10009384;28;20133;-67
2023/02/24 20:08:41;;;;;;;51.50;37.63;;;;;;;;;;10018544;28;20049;-69
2023/02/24 20:13:34;;;;;;;58.80;35.70;;;;;;;;;;10016253;28;20474;-66
2023/02/24 20:18:27;;;;;;;51.85;36.17;;;;;;;;;;10010212;28;20096;-68
2023/02/24 20:23:21;;;;;;;55.65;35.83;;;;;;;;;;10009766;28;20046;-68
2023/02/24 20:28:15;;;;;;;53.13;32.42;;;;;;;;;;10015442;28;20133;-68
2023/02/24 20:33:09;;;;;;;52.25;33.72;;;;;;;;;;10011463;28;20084;-68
2023/02/24 20:38:02;;;;;;;52.03;35.35;;;;;;;;;;10011857;28;20045;-68
2023/02/24 20:42:57;;;;;;;58.40;35.63;;;;;;;;;;10002349;28;20053;-67
2023/02/24 20:47:50;;;;;;;48.78;34.63;;;;;;;;;;9999316;28;20085;-67
2023/02/24 20:52:44;;;;;;;46.55;31.15;;;;;;;;;;10007281;28;20065;-68
2023/02/24 20:57:38;;;;;;;46.42;31.73;;;;;;;;;;9999483;28;20041;-66
2023/02/24 21:02:31;;;;;;;58.90;35.92;;;;;;;;;;10012909;28;20089;-68
2023/02/24 21:07:24;;;;;;;55.67;39.67;;;;;;;;;;9997256;28;20475;-68
2023/02/24 21:12:17;;;;;;;53.72;38.50;;;;;;;;;;10016522;28;20056;-66
2023/02/24 21:17:11;;;;;;;65.75;45.88;;;;;;;;;;10007407;28;20517;-66
2023/02/24 21:22:05;;;;;;;71.85;44.72;;;;;;;;;;10003959;28;20054;-67
2023/02/24 21:26:57;;;;;;;60.92;41.00;;;;;;;;;;10005433;28;20050;-67
2023/02/24 21:31:51;;;;;;;68.97;50.72;;;;;;;;;;10010903;28;20073;-67
2023/02/24 21:36:44;;;;;;;59.58;40.03;;;;;;;;;;10004727;28;20104;-67
2023/02/24 21:41:37;;;;;;;72.13;46.78;;;;;;;;;;10002777;28;20057;-67
2023/02/24 21:46:30;;;;;;;60.38;40.38;;;;;;;;;;10011628;28;20058;-67
2023/02/24 21:51:27;;;;;;;55.97;39.17;;;;;;;;;;10009694;28;20061;-66
2023/02/24 21:56:23;;;;;;;59.40;39.17;;;;;;;;;;10002105;28;20054;-67
2023/02/24 22:01:19;;;;;;;58.45;37.25;;;;;;;;;;10009090;28;20060;-66
2023/02/24 22:06:13;;;;;;;53.42;36.45;;;;;;;;;;10005498;28;20502;-66
2023/02/24 22:11:07;;;;;;;54.55;38.88;;;;;;;;;;10013969;28;20066;-67
2023/02/24 22:16:03;;;;;;;67.72;40.17;;;;;;;;;;10021604;28;20068;-67
2023/02/24 22:20:57;;;;;;;62.58;38.83;;;;;;;;;;10019895;28;20053;-66
2023/02/24 22:25:51;;;;;;;55.50;37.40;;;;;;;;;;10013482;28;20483;-66
2023/02/24 22:30:44;;;;;;;59.97;37.63;;;;;;;;;;10012025;28;20074;-66
2023/02/24 22:35:37;;;;;;;58.35;37.83;;;;;;;;;;10027272;28;20499;-65
2023/02/24 22:40:31;;;;;;;56.70;36.55;;;;;;;;;;10027201;28;20529;-66
2023/02/24 22:45:24;;;;;;;60.67;38.55;;;;;;;;;;10027280;28;20053;-66
2023/02/24 22:50:18;;;;;;;50.50;35.50;;;;;;;;;;10028409;28;20553;-66
2023/02/24 22:55:11;;;;;;;53.95;36.58;;;;;;;;;;10028440;28;20128;-65
2023/02/24 23:00:09;;;;;;;62.25;37.53;;;;;;;;;;10031405;28;20076;-65
2023/02/24 23:05:03;;;;;;;62.55;43.38;;;;;;;;;;10030219;28;20042;-66
2023/02/24 23:09:57;;;;;;;61.17;40.67;;;;;;;;;;10029968;28;20115;-65
2023/02/24 23:14:51;;;;;;;52.80;36.30;;;;;;;;;;10030350;28;20073;-65
2023/02/24 23:19:44;;;;;;;57.97;37.80;;;;;;;;;;10029333;28;20045;-65
2023/02/24 23:24:39;;;;;;;53.67;35.78;;;;;;;;;;10030145;28;20056;-66
2023/02/24 23:29:33;;;;;;;55.63;37.13;;;;;;;;;;10029908;28;20558;-66
2023/02/24 23:34:26;;;;;;;53.78;38.53;;;;;;;;;;10029248;28;20092;-66
2023/02/24 23:39:22;;;;;;;52.90;35.47;;;;;;;;;;10028812;28;20058;-65
2023/02/24 23:44:15;;;;;;;51.00;36.00;;;;;;;;;;10029299;28;20060;-65
2023/02/24 23:49:08;;;;;;;53.67;36.50;;;;;;;;;;10028727;28;20084;-65
2023/02/24 23:54:02;;;;;;;55.88;38.10;;;;;;;;;;10028652;28;20073;-65
2023/02/24 23:58:59;;;;;;;59.33;36.33;;;;;;;;;;10027701;28;20058;-66
